Time;durP1;ratioP1;P1;durP2;ratioP2;P2;SDS_P1;SDS_P2;PMS_P1;PMS_P2;Temp;Humidity;BMP_temperature;BMP_pressure;BME280_temperature;BME280_humidity;BME280_pressure;Samples;Min_cycle;Max_cycle;Signal;HPM_P1;HPM_P2
2021/08/07 00:01:30;;;;;;;1.93;1.10;;;;;;;22.71;53.27;96691.90;126999;1092;62726;-34
2021/08/07 00:03:56;;;;;;;1.73;1.00;;;;;;;22.70;53.16;96684.94;126956;1092;62616;-33
2021/08/07 00:06:23;;;;;;;1.47;1.10;;;;;;;22.69;53.22;96689.42;127030;1092;62617;-32
2021/08/07 00:08:51;;;;;;;1.57;1.00;;;;;;;22.69;53.05;96686.75;126985;1092;62619;-33
2021/08/07 00:11:18;;;;;;;1.50;1.20;;;;;;;22.69;53.34;96691.27;127004;1092;62657;-33
2021/08/07 00:13:45;;;;;;;2.50;1.40;;;;;;;22.67;53.14;96686.16;127023;1092;62616;-34
2021/08/07 00:16:12;;;;;;;1.60;1.30;;;;;;;22.67;53.34;96693.33;127024;1092;62747;-34
2021/08/07 00:18:40;;;;;;;1.97;1.20;;;;;;;22.66;53.19;96689.84;126893;1092;62615;-35
2021/08/07 00:21:07;;;;;;;1.60;1.00;;;;;;;22.67;53.39;96696.81;127008;1092;62616;-33
2021/08/07 00:23:33;;;;;;;2.43;1.33;;;;;;;22.67;53.45;96696.81;126893;1092;62620;-32
2021/08/07 00:26:00;;;;;;;1.80;0.93;;;;;;;22.66;53.26;96703.16;126953;1092;62635;-33
2021/08/07 00:28:27;;;;;;;1.80;1.20;;;;;;;22.66;53.30;96705.02;126858;1092;62748;-33
2021/08/07 00:30:54;;;;;;;1.93;1.20;;;;;;;22.65;53.39;96701.53;126978;1092;62613;-33
2021/08/07 00:33:21;;;;;;;1.33;1.07;;;;;;;22.64;53.38;96702.53;127042;1092;62608;-33
2021/08/07 00:35:48;;;;;;;1.53;1.20;;;;;;;22.64;53.52;96710.52;126980;1092;62633;-34
2021/08/07 00:38:15;;;;;;;1.03;0.93;;;;;;;22.64;53.54;96718.52;126942;1092;62620;-33
2021/08/07 00:40:42;;;;;;;2.13;1.20;;;;;;;22.63;53.66;96707.05;126939;1092;62758;-32
2021/08/07 00:43:10;;;;;;;1.20;1.07;;;;;;;22.62;53.67;96718.73;127071;1092;62633;-34
2021/08/07 00:45:38;;;;;;;1.30;1.20;;;;;;;22.63;53.73;96722.20;127104;1090;62617;-34
2021/08/07 00:48:08;;;;;;;1.40;0.90;;;;;;;22.62;53.49;96717.91;127081;1092;62649;-33
2021/08/07 00:50:36;;;;;;;2.10;1.20;;;;;;;22.62;53.85;96720.58;126886;1092;62728;-32
2021/08/07 00:53:03;;;;;;;2.00;1.40;;;;;;;22.62;53.87;96728.56;126869;1092;62744;-32
2021/08/07 00:55:31;;;;;;;2.33;1.30;;;;;;;22.61;53.85;96729.59;126899;1092;62603;-34
2021/08/07 00:57:58;;;;;;;1.93;1.30;;;;;;;22.61;54.00;96734.92;126955;1092;62587;-34
2021/08/07 01:00:25;;;;;;;1.90;0.97;;;;;;;22.60;54.07;96734.11;126865;1092;62617;-33
2021/08/07 01:03:20;;;;;;;1.17;1.00;;;;;;;22.60;53.87;96733.26;127023;1092;62980;-33
2021/08/07 01:06:07;;;;;;;1.33;0.90;;;;;;;22.59;54.21;96739.62;126939;1092;62851;-33
2021/08/07 01:08:38;;;;;;;2.30;1.10;;;;;;;22.59;54.17;96739.62;126840;1092;62625;-32
2021/08/07 01:11:28;;;;;;;1.70;1.10;;;;;;;22.58;54.03;96738.80;126979;1092;62572;-33
2021/08/07 01:13:58;;;;;;;1.70;1.10;;;;;;;22.57;54.18;96739.02;126928;1092;62580;-31
2021/08/07 01:16:36;;;;;;;1.15;0.90;;;;;;;22.56;54.21;96742.70;126977;1092;62616;-32
2021/08/07 01:19:03;;;;;;;1.60;1.00;;;;;;;22.56;54.12;96753.36;127102;1092;62617;-33
2021/08/07 01:21:35;;;;;;;1.13;0.90;;;;;;;22.56;54.10;96750.70;127076;1092;62646;-32
2021/08/07 01:24:04;;;;;;;1.20;0.90;;;;;;;22.54;54.26;96750.06;127012;1092;62588;-33
2021/08/07 01:26:38;;;;;;;1.33;0.83;;;;;;;22.54;54.58;96750.06;126973;1092;62633;-33
2021/08/07 01:29:04;;;;;;;1.63;0.90;;;;;;;22.53;54.56;96751.09;127019;1092;62737;-32
2021/08/07 01:31:31;;;;;;;1.40;0.90;;;;;;;22.53;54.56;96759.08;127037;1092;62770;-32
2021/08/07 01:33:58;;;;;;;1.37;1.07;;;;;;;22.52;54.47;96749.45;126885;1092;62619;-33
2021/08/07 01:36:25;;;;;;;1.67;0.90;;;;;;;22.51;54.61;96747.80;127006;1092;62590;-32
2021/08/07 01:38:52;;;;;;;2.60;1.13;;;;;;;22.50;54.42;96754.97;127061;1092;62617;-33
2021/08/07 01:41:21;;;;;;;1.23;1.10;;;;;;;22.50;54.58;96748.83;126953;1090;62632;-32
2021/08/07 01:43:48;;;;;;;1.53;0.87;;;;;;;22.50;54.65;96754.15;127062;1092;62856;-34
2021/08/07 01:46:16;;;;;;;1.23;0.90;;;;;;;22.49;54.52;96756.00;127110;1092;63147;-33
2021/08/07 01:48:54;;;;;;;1.00;0.87;;;;;;;22.49;54.78;96752.52;126915;1092;62617;-33
2021/08/07 01:51:26;;;;;;;1.40;1.10;;;;;;;22.49;54.79;96752.52;126914;1092;62630;-33
2021/08/07 01:53:54;;;;;;;1.60;0.90;;;;;;;22.48;54.80;96751.70;127106;1092;62655;-34
2021/08/07 01:56:31;;;;;;;1.47;0.90;;;;;;;22.48;54.51;96750.88;127053;1092;62762;-33
2021/08/07 01:58:59;;;;;;;2.25;1.10;;;;;;;22.49;54.76;96757.84;126946;1092;62587;-33
2021/08/07 02:01:26;;;;;;;1.20;0.90;;;;;;;22.47;54.72;96750.06;126952;1092;62616;-34
2021/08/07 02:03:54;;;;;;;2.20;1.10;;;;;;;22.48;54.84;96761.53;126895;1092;62585;-32
2021/08/07 02:06:21;;;;;;;1.53;0.90;;;;;;;22.47;54.70;96757.23;127156;1092;62617;-33
2021/08/07 02:08:48;;;;;;;2.30;0.90;;;;;;;22.46;54.68;96750.25;127030;1092;62604;-33
2021/08/07 02:11:16;;;;;;;2.10;0.87;;;;;;;22.46;55.04;96752.91;126929;1092;62582;-32
2021/08/07 02:13:44;;;;;;;1.33;1.10;;;;;;;22.45;55.00;96751.28;126981;1092;62626;-32
2021/08/07 02:16:11;;;;;;;1.23;0.93;;;;;;;22.46;54.77;96752.91;127025;1092;62620;-33
2021/08/07 02:18:39;;;;;;;1.40;1.10;;;;;;;22.46;54.85;96755.58;126956;1092;62608;-32
2021/08/07 02:21:06;;;;;;;1.90;1.20;;;;;;;22.44;55.02;96760.30;126894;1092;62587;-32
2021/08/07 02:23:33;;;;;;;1.40;1.00;;;;;;;22.44;55.12;96765.63;127072;1092;62629;-33
2021/08/07 02:26:02;;;;;;;1.43;1.00;;;;;;;22.44;54.79;96754.97;126996;1092;62623;-32
2021/08/07 02:28:29;;;;;;;1.40;1.03;;;;;;;22.43;55.10;96753.34;126951;1092;62622;-35
2021/08/07 02:30:58;;;;;;;1.30;0.90;;;;;;;22.43;54.98;96748.02;127031;1092;62620;-32
2021/08/07 02:33:25;;;;;;;1.33;0.97;;;;;;;22.42;55.20;96752.52;127161;1092;62617;-32
2021/08/07 02:35:54;;;;;;;1.90;1.17;;;;;;;22.41;55.24;96764.16;126986;1092;62610;-32
2021/08/07 02:38:22;;;;;;;1.30;0.95;;;;;;;22.40;55.32;96759.88;126904;1092;62676;-33
2021/08/07 02:40:49;;;;;;;0.97;0.77;;;;;;;22.41;55.05;96755.36;126907;1092;62647;-33
2021/08/07 02:43:17;;;;;;;1.90;0.90;;;;;;;22.40;55.05;96751.88;126945;1092;62698;-32
2021/08/07 02:45:44;;;;;;;1.60;0.87;;;;;;;22.40;55.14;96751.88;126900;1092;62764;-32
2021/08/07 02:48:11;;;;;;;1.07;0.83;;;;;;;22.40;55.14;96757.20;126934;1092;62624;-33
2021/08/07 02:50:39;;;;;;;1.13;1.00;;;;;;;22.39;55.07;96757.42;127082;1092;62905;-33
2021/08/07 02:53:06;;;;;;;1.37;0.90;;;;;;;22.39;55.02;96768.07;126963;1092;62616;-33
2021/08/07 02:55:33;;;;;;;2.77;1.10;;;;;;;22.37;54.98;96757.63;126987;1092;62625;-34
2021/08/07 02:58:00;;;;;;;0.67;0.67;;;;;;;22.38;55.29;96759.27;127065;1092;63111;-33
2021/08/07 03:00:36;;;;;;;1.37;1.00;;;;;;;22.38;55.03;96750.46;126914;1092;63073;-32
2021/08/07 03:03:04;;;;;;;1.30;0.83;;;;;;;22.39;55.32;96752.09;126899;1092;62569;-33
2021/08/07 03:05:31;;;;;;;1.23;1.00;;;;;;;22.38;55.17;96756.60;127043;1092;62621;-33
2021/08/07 03:07:58;;;;;;;1.10;0.90;;;;;;;22.38;55.20;96756.60;126935;1092;62646;-33
2021/08/07 03:10:25;;;;;;;1.57;1.00;;;;;;;22.36;54.97;96762.11;126915;1092;62789;-33
2021/08/07 03:12:53;;;;;;;1.00;0.80;;;;;;;22.36;55.17;96763.95;126980;1092;62681;-32
2021/08/07 03:15:21;;;;;;;1.30;0.93;;;;;;;22.36;55.17;96759.45;127013;1092;62612;-33
2021/08/07 03:17:48;;;;;;;1.23;0.80;;;;;;;22.38;55.06;96761.11;127097;1092;62632;-33
2021/08/07 03:20:15;;;;;;;2.10;1.10;;;;;;;22.35;55.18;96760.47;126947;1092;62668;-34
2021/08/07 03:22:42;;;;;;;2.40;1.20;;;;;;;22.36;55.43;96769.28;126929;1092;62625;-34
2021/08/07 03:25:11;;;;;;;1.20;0.90;;;;;;;22.36;55.27;96772.76;127051;1092;62616;-33
2021/08/07 03:27:38;;;;;;;1.60;0.90;;;;;;;22.36;55.42;96769.28;127097;1092;62629;-33
2021/08/07 03:30:06;;;;;;;0.93;0.80;;;;;;;22.36;55.34;96764.77;126980;1092;62636;-32
2021/08/07 03:32:33;;;;;;;0.70;0.70;;;;;;;22.35;55.54;96773.78;126979;1092;62588;-32
2021/08/07 03:35:00;;;;;;;1.50;1.00;;;;;;;22.35;55.13;96773.78;127487;1092;62617;-33
2021/08/07 03:37:27;;;;;;;1.23;0.90;;;;;;;22.34;55.18;96771.33;127048;1092;62624;-32
2021/08/07 03:39:54;;;;;;;1.60;1.10;;;;;;;22.33;55.22;96761.72;126999;1092;62686;-34
2021/08/07 03:42:21;;;;;;;1.33;1.00;;;;;;;22.32;54.71;96770.70;127058;1092;62737;-33
2021/08/07 03:44:48;;;;;;;1.57;1.00;;;;;;;22.31;54.82;96777.87;126886;1092;62603;-32
2021/08/07 03:47:15;;;;;;;1.27;1.00;;;;;;;22.31;54.95;96777.05;126999;1092;62733;-34
2021/08/07 03:49:42;;;;;;;1.57;1.10;;;;;;;22.30;54.66;96780.73;126980;1092;62672;-33
2021/08/07 03:52:09;;;;;;;1.47;1.10;;;;;;;22.30;54.88;96778.89;126920;1092;62620;-33
2021/08/07 03:54:36;;;;;;;1.57;1.10;;;;;;;22.30;54.54;96781.56;126941;1092;62611;-34
2021/08/07 03:57:03;;;;;;;1.27;1.10;;;;;;;22.29;54.62;96790.57;126892;1092;62638;-31
2021/08/07 03:59:30;;;;;;;1.03;0.93;;;;;;;22.30;55.02;96794.88;126968;1092;62571;-33
2021/08/07 04:01:56;;;;;;;1.20;1.00;;;;;;;22.29;54.78;96798.56;127095;1092;62600;-33
2021/08/07 04:04:23;;;;;;;1.13;0.97;;;;;;;22.29;54.96;96787.91;127057;1092;62581;-35
2021/08/07 04:06:50;;;;;;;2.07;1.30;;;;;;;22.30;54.67;96786.88;126874;1092;63080;-32
2021/08/07 04:09:17;;;;;;;2.77;1.20;;;;;;;22.29;54.29;96784.44;126964;1092;62654;-32
2021/08/07 04:11:44;;;;;;;1.90;1.30;;;;;;;22.25;54.16;96777.86;127113;1092;62719;-32
2021/08/07 04:14:11;;;;;;;2.23;1.23;;;;;;;22.20;54.35;96775.80;127193;1092;62623;-33
2021/08/07 04:16:38;;;;;;;1.90;1.20;;;;;;;22.17;53.96;96784.17;127136;1092;62987;-33
2021/08/07 04:19:05;;;;;;;2.90;1.20;;;;;;;22.14;54.04;96779.27;127100;1092;62624;-34
2021/08/07 04:21:32;;;;;;;2.40;1.37;;;;;;;22.12;53.71;96767.98;127033;1092;62754;-33
2021/08/07 04:23:59;;;;;;;2.60;1.30;;;;;;;22.10;53.57;96775.33;127096;1092;62613;-33
2021/08/07 04:26:26;;;;;;;1.73;1.20;;;;;;;22.09;53.55;96784.31;127137;1092;62620;-33
2021/08/07 04:28:53;;;;;;;1.90;1.20;;;;;;;22.06;53.30;96790.88;127125;1092;62633;-32
2021/08/07 04:31:20;;;;;;;2.20;1.40;;;;;;;22.05;53.25;96791.89;127134;1092;62569;-33
2021/08/07 04:33:47;;;;;;;1.77;1.50;;;;;;;22.05;53.08;96799.06;127014;1092;62623;-33
2021/08/07 04:36:14;;;;;;;1.47;1.30;;;;;;;22.04;53.07;96802.72;126984;1092;62617;-33
2021/08/07 04:38:41;;;;;;;2.17;1.50;;;;;;;22.03;52.87;96806.41;127036;1092;62687;-35
2021/08/07 04:41:08;;;;;;;1.90;1.70;;;;;;;22.00;52.17;96801.47;126954;1092;62616;-34
2021/08/07 04:43:35;;;;;;;2.20;1.60;;;;;;;21.95;51.87;96795.92;127030;1092;62893;-34
2021/08/07 04:46:02;;;;;;;2.13;1.40;;;;;;;21.90;51.31;96793.03;127110;1092;62642;-33
2021/08/07 04:48:29;;;;;;;1.97;1.60;;;;;;;21.84;51.02;96792.81;127035;1092;62626;-33
2021/08/07 04:50:56;;;;;;;1.70;1.40;;;;;;;21.77;51.21;96799.95;126890;1092;62629;-34
2021/08/07 04:53:23;;;;;;;2.30;1.37;;;;;;;21.74;51.10;96797.67;126978;1092;62645;-33
2021/08/07 04:55:50;;;;;;;1.87;1.37;;;;;;;21.69;51.24;96797.45;127048;1092;62569;-35
2021/08/07 04:58:17;;;;;;;1.70;1.40;;;;;;;21.66;51.19;96800.48;127128;1092;62742;-34
2021/08/07 05:00:44;;;;;;;1.90;1.40;;;;;;;21.65;50.92;96806.02;126959;1092;62844;-34
2021/08/07 05:03:10;;;;;;;1.77;1.40;;;;;;;21.63;50.92;96811.54;126891;1092;62601;-31
2021/08/07 05:05:37;;;;;;;1.97;1.50;;;;;;;21.60;50.40;96809.26;126913;1092;62582;-32
2021/08/07 05:08:04;;;;;;;2.77;1.53;;;;;;;21.58;50.77;96808.62;126897;1092;62636;-32
2021/08/07 05:10:31;;;;;;;2.40;1.93;;;;;;;21.55;50.19;96809.84;127140;1092;62686;-34
2021/08/07 05:12:58;;;;;;;3.70;1.87;;;;;;;21.53;50.17;96803.06;127149;1092;62629;-31
2021/08/07 05:15:25;;;;;;;2.83;1.77;;;;;;;21.51;50.30;96811.25;127157;1092;62684;-32
2021/08/07 05:17:54;;;;;;;2.47;1.80;;;;;;;21.51;50.30;96815.75;127142;1092;62635;-34
2021/08/07 05:20:21;;;;;;;1.83;1.55;;;;;;;21.50;50.30;96817.59;127106;1092;62617;-33
2021/08/07 05:22:48;;;;;;;2.35;1.85;;;;;;;21.50;50.19;96816.77;127158;1092;62642;-32
2021/08/07 05:25:15;;;;;;;3.00;1.87;;;;;;;21.49;50.12;96820.42;127066;1092;62938;-32
2021/08/07 05:27:42;;;;;;;2.63;1.87;;;;;;;21.48;49.85;96818.78;127126;1092;62637;-33
2021/08/07 05:30:10;;;;;;;2.17;1.70;;;;;;;21.46;49.63;96823.48;127041;1091;62608;-33
2021/08/07 05:32:37;;;;;;;2.80;1.80;;;;;;;21.43;49.61;96818.55;126994;1092;62627;-33
2021/08/07 05:35:04;;;;;;;2.20;1.67;;;;;;;21.41;49.35;96813.44;127113;1092;62619;-34
2021/08/07 05:37:32;;;;;;;2.20;1.73;;;;;;;21.40;49.47;96818.92;127159;1092;62625;-33
2021/08/07 05:39:59;;;;;;;3.00;1.90;;;;;;;21.38;49.18;96812.99;127099;1092;62625;-33
2021/08/07 05:42:26;;;;;;;1.63;1.53;;;;;;;21.35;49.53;96815.04;127118;1092;62569;-33
2021/08/07 05:44:53;;;;;;;1.97;1.77;;;;;;;21.34;49.24;96818.69;127110;1092;62633;-33
2021/08/07 05:47:20;;;;;;;2.43;1.80;;;;;;;21.33;49.16;96819.70;126956;1092;62657;-32
2021/08/07 05:49:47;;;;;;;3.20;1.90;;;;;;;21.33;49.17;96826.86;127103;1092;62762;-35
2021/08/07 05:52:14;;;;;;;1.93;1.43;;;;;;;21.33;49.11;96826.86;127052;1092;62719;-33
2021/08/07 05:54:41;;;;;;;2.33;1.60;;;;;;;21.32;48.97;96834.02;127134;1092;62639;-33
2021/08/07 05:57:08;;;;;;;2.70;1.70;;;;;;;21.33;49.05;96840.16;127097;1092;62642;-33
2021/08/07 05:59:35;;;;;;;2.17;1.67;;;;;;;21.34;49.34;96844.45;127042;1092;62623;-33
2021/08/07 06:02:02;;;;;;;2.10;1.63;;;;;;;21.33;49.04;96843.63;127100;1092;62825;-33
2021/08/07 06:04:30;;;;;;;3.47;2.17;;;;;;;21.34;49.03;96866.53;126926;1092;62625;-32
2021/08/07 06:06:57;;;;;;;2.23;1.57;;;;;;;21.35;48.63;96856.72;126928;1092;62623;-52
2021/08/07 06:09:25;;;;;;;1.37;1.20;;;;;;;21.20;48.10;96863.94;126968;1092;62620;-55
2021/08/07 06:11:52;;;;;;;3.07;2.10;;;;;;;21.03;47.95;96864.22;126935;1092;62569;-67
2021/08/07 06:14:19;;;;;;;4.63;2.47;;;;;;;20.86;48.47;96873.44;126932;1092;62767;-66
2021/08/07 06:16:46;;;;;;;7.40;5.27;;;;;;;20.75;48.94;96877.43;126949;1092;62832;-62
2021/08/07 06:19:13;;;;;;;5.25;3.70;;;;;;;20.65;48.44;96879.55;126983;1092;62616;-67
2021/08/07 06:21:40;;;;;;;4.10;3.43;;;;;;;20.57;48.58;96884.98;126965;1092;62572;-67
2021/08/07 06:24:07;;;;;;;5.70;4.63;;;;;;;20.51;48.89;96885.72;126937;1092;62629;-66
2021/08/07 06:26:34;;;;;;;2.20;1.90;;;;;;;20.47;48.51;96887.06;127075;1092;62605;-69
2021/08/07 06:29:01;;;;;;;4.33;3.37;;;;;;;20.44;48.31;96880.31;127088;1092;62633;-68
2021/08/07 06:31:28;;;;;;;1.93;1.60;;;;;;;20.45;48.23;96892.57;127071;1092;62649;-60
2021/08/07 06:33:55;;;;;;;2.97;2.17;;;;;;;20.46;48.45;96888.08;126934;1092;62642;-66
2021/08/07 06:36:22;;;;;;;2.07;1.57;;;;;;;20.48;48.25;96891.42;126992;1092;63041;-66
2021/08/07 06:38:49;;;;;;;7.03;4.53;;;;;;;20.52;48.25;96903.28;127207;1091;62568;-63
2021/08/07 06:41:16;;;;;;;5.80;5.20;;;;;;;20.57;48.46;96906.23;127117;1092;62622;-65
2021/08/07 06:43:43;;;;;;;8.93;7.13;;;;;;;20.64;48.58;96906.30;127077;1092;62647;-68
2021/08/07 06:46:10;;;;;;;3.07;2.50;;;;;;;20.68;48.09;96904.91;126917;1092;62668;-69
2021/08/07 06:48:37;;;;;;;3.43;2.30;;;;;;;20.76;47.90;96904.81;126918;1092;62766;-60
2021/08/07 06:51:05;;;;;;;7.90;7.10;;;;;;;20.82;47.96;96904.05;126975;1092;62693;-69
2021/08/07 06:53:33;;;;;;;8.00;6.50;;;;;;;20.90;47.86;96901.28;127013;1092;62617;-68
2021/08/07 06:56:00;;;;;;;3.43;2.23;;;;;;;20.97;47.59;96907.47;127038;1092;62617;-68
2021/08/07 06:58:27;;;;;;;6.03;5.33;;;;;;;21.04;47.33;96912.86;127033;1092;62878;-63
2021/08/07 07:00:53;;;;;;;7.07;5.57;;;;;;;21.11;47.55;96917.21;127083;1092;62616;-56
2021/08/07 07:03:20;;;;;;;5.17;4.20;;;;;;;21.19;47.13;96918.11;126996;1092;62735;-60
2021/08/07 07:05:47;;;;;;;6.83;6.10;;;;;;;21.27;47.27;96921.47;127073;1092;62569;-60
2021/08/07 07:08:14;;;;;;;2.97;2.47;;;;;;;21.38;47.15;96916.67;127017;1092;62625;-59
2021/08/07 07:10:41;;;;;;;2.67;1.73;;;;;;;21.44;46.72;96919.38;126941;1092;62569;-57
2021/08/07 07:13:08;;;;;;;4.77;4.23;;;;;;;21.51;46.80;96919.45;126900;1090;62796;-58
2021/08/07 07:15:35;;;;;;;7.63;5.37;;;;;;;21.59;47.01;96917.48;126933;1092;62679;-59
2021/08/07 07:18:02;;;;;;;5.17;4.03;;;;;;;21.67;46.65;96919.15;126949;1092;62569;-60
2021/08/07 07:20:30;;;;;;;6.07;4.67;;;;;;;21.74;46.88;96911.23;126960;1092;62578;-53
2021/08/07 07:22:56;;;;;;;7.23;5.03;;;;;;;21.84;47.21;96909.87;126888;1092;62661;-58
2021/08/07 07:25:24;;;;;;;4.77;4.07;;;;;;;21.94;47.20;96909.52;126905;1092;62719;-59
2021/08/07 07:27:51;;;;;;;4.43;3.10;;;;;;;22.04;47.25;96909.98;126963;1092;62787;-59
2021/08/07 07:30:18;;;;;;;2.73;1.90;;;;;;;22.13;46.59;96909.86;126963;1092;62605;-56
2021/08/07 07:32:45;;;;;;;3.57;2.20;;;;;;;22.21;46.42;96912.38;127097;1092;62603;-55
2021/08/07 07:35:12;;;;;;;2.30;1.97;;;;;;;22.30;46.62;96898.70;127107;1092;62625;-58
2021/08/07 07:37:39;;;;;;;2.63;2.00;;;;;;;22.39;46.38;96906.53;126944;1092;62661;-62
2021/08/07 07:40:07;;;;;;;2.43;1.87;;;;;;;22.46;46.28;96902.86;127134;1092;62759;-59
2021/08/07 07:42:34;;;;;;;3.80;3.07;;;;;;;22.53;46.74;96898.39;127168;1092;62626;-62
2021/08/07 07:45:01;;;;;;;3.03;2.23;;;;;;;22.61;46.85;96905.39;127140;1092;62633;-59
2021/08/07 07:47:28;;;;;;;4.20;3.07;;;;;;;22.69;46.85;96899.05;127107;1092;62625;-60
2021/08/07 07:49:55;;;;;;;4.77;3.20;;;;;;;22.76;46.92;96905.23;127034;1092;62754;-60
2021/08/07 07:52:22;;;;;;;3.93;2.87;;;;;;;22.84;47.12;96903.20;127059;1092;62616;-60
2021/08/07 07:54:49;;;;;;;4.27;3.10;;;;;;;22.90;47.14;96904.27;127101;1092;62632;-60
2021/08/07 07:57:16;;;;;;;4.50;3.10;;;;;;;22.99;46.85;96907.58;127147;1092;62918;-58
2021/08/07 07:59:43;;;;;;;6.03;3.17;;;;;;;23.07;46.89;96910.06;127136;1092;62630;-59
2021/08/07 08:02:10;;;;;;;5.37;3.13;;;;;;;23.16;46.71;96914.17;127069;1092;62668;-58
2021/08/07 08:04:37;;;;;;;4.27;2.97;;;;;;;23.24;46.70;96916.63;127023;1092;62768;-58
2021/08/07 08:07:04;;;;;;;4.20;3.10;;;;;;;23.32;46.88;96912.95;127011;1092;62630;-60
2021/08/07 08:09:31;;;;;;;4.63;2.90;;;;;;;23.36;46.61;96920.34;127058;1092;62633;-59
2021/08/07 08:11:57;;;;;;;3.57;2.70;;;;;;;23.42;46.36;96916.03;127078;1092;63124;-57
2021/08/07 08:14:25;;;;;;;4.97;3.17;;;;;;;23.46;46.39;96919.12;127144;1092;62620;-59
2021/08/07 08:16:51;;;;;;;3.87;2.90;;;;;;;23.50;46.39;96917.69;126935;1092;62773;-58
2021/08/07 08:19:18;;;;;;;4.00;3.20;;;;;;;23.47;46.41;96926.91;126960;1092;62636;-60
2021/08/07 08:21:45;;;;;;;3.43;2.20;;;;;;;23.42;45.87;96913.36;126919;1092;62617;-58
2021/08/07 08:24:12;;;;;;;3.13;2.30;;;;;;;23.40;46.05;96914.61;126995;1091;62572;-58
2021/08/07 08:26:41;;;;;;;3.80;2.83;;;;;;;23.44;46.37;96916.66;126907;1092;62666;-58
2021/08/07 08:29:08;;;;;;;3.50;2.57;;;;;;;23.47;46.26;96921.57;127026;1092;62546;-59
2021/08/07 08:31:35;;;;;;;3.83;2.37;;;;;;;23.52;46.07;96920.95;126931;1092;62625;-59
2021/08/07 08:34:02;;;;;;;3.90;3.17;;;;;;;23.58;46.33;96923.64;126993;1092;62613;-59
2021/08/07 08:36:29;;;;;;;4.10;2.60;;;;;;;23.64;46.27;96927.36;126974;1092;62657;-56
2021/08/07 08:38:56;;;;;;;4.33;2.63;;;;;;;23.72;45.82;96929.01;126884;1092;62661;-58
2021/08/07 08:41:23;;;;;;;4.13;2.57;;;;;;;23.77;46.00;96926.54;126957;1092;62768;-58
2021/08/07 08:43:53;;;;;;;3.70;2.50;;;;;;;23.83;45.70;96926.52;126926;1092;62671;-59
2021/08/07 08:46:20;;;;;;;3.40;2.53;;;;;;;23.89;45.48;96919.52;127053;1092;62684;-60
2021/08/07 08:48:47;;;;;;;3.30;2.57;;;;;;;23.95;45.34;96928.58;126979;1092;62636;-60
2021/08/07 08:51:14;;;;;;;4.00;2.80;;;;;;;23.98;45.35;96928.14;126911;1092;62626;-59
2021/08/07 08:53:41;;;;;;;3.90;2.70;;;;;;;24.02;45.16;96929.38;126924;1092;62725;-60
2021/08/07 08:56:08;;;;;;;4.10;2.80;;;;;;;24.05;45.36;96928.97;126951;1092;62591;-59
2021/08/07 08:58:38;;;;;;;3.10;2.40;;;;;;;24.09;45.10;96924.86;127097;1092;62637;-61
2021/08/07 09:01:08;;;;;;;4.37;2.60;;;;;;;24.11;44.95;96928.94;126972;1092;62622;-60
2021/08/07 09:03:35;;;;;;;3.97;2.23;;;;;;;24.15;44.83;96924.01;126914;1092;62661;-59
2021/08/07 09:06:02;;;;;;;4.10;2.50;;;;;;;24.18;45.01;96918.27;127038;1092;62710;-58
2021/08/07 09:08:29;;;;;;;3.90;2.80;;;;;;;24.23;44.95;96915.78;127112;1092;62719;-59
2021/08/07 09:11:16;;;;;;;4.70;2.57;;;;;;;24.29;44.76;96920.27;127006;1092;62618;-59
2021/08/07 09:13:43;;;;;;;3.27;2.43;;;;;;;24.35;44.56;96919.42;127157;1092;62620;-59
2021/08/07 09:16:11;;;;;;;2.10;1.87;;;;;;;24.43;44.16;96922.94;126950;1092;62724;-56
2021/08/07 09:18:38;;;;;;;3.07;2.03;;;;;;;24.50;44.12;96926.42;127086;1092;62714;-59
2021/08/07 09:21:12;;;;;;;2.13;1.63;;;;;;;24.59;43.66;96919.81;126904;1092;62649;-60
2021/08/07 09:23:40;;;;;;;2.67;2.00;;;;;;;24.66;43.38;96914.42;127187;1092;62616;-59
2021/08/07 09:26:19;;;;;;;2.57;2.00;;;;;;;24.68;43.21;96915.83;127206;1092;62642;-57
2021/08/07 09:28:48;;;;;;;4.13;2.10;;;;;;;24.70;43.22;96911.11;126997;1092;62633;-60
2021/08/07 09:31:15;;;;;;;2.57;1.80;;;;;;;24.73;42.87;96916.05;127013;1092;62709;-59
2021/08/07 09:33:42;;;;;;;2.70;2.00;;;;;;;24.78;42.71;96913.55;126872;1092;62588;-58
2021/08/07 09:36:09;;;;;;;2.23;2.00;;;;;;;24.84;42.45;96918.03;126899;1092;62601;-57
2021/08/07 09:38:43;;;;;;;2.00;1.55;;;;;;;24.92;42.28;96921.50;126976;1092;62907;-58
2021/08/07 09:41:10;;;;;;;2.63;2.00;;;;;;;24.95;42.39;96918.38;127087;1092;62620;-49
2021/08/07 09:43:45;;;;;;;2.07;1.67;;;;;;;24.95;42.10;96915.70;126954;1091;62638;-49
2021/08/07 09:46:13;;;;;;;2.50;1.60;;;;;;;24.97;42.12;96916.33;126930;1092;62637;-46
2021/08/07 09:48:45;;;;;;;2.00;1.53;;;;;;;24.99;42.32;96924.94;126943;1092;62601;-45
2021/08/07 09:51:18;;;;;;;1.80;1.50;;;;;;;25.01;42.17;96913.01;127145;1092;62680;-49
2021/08/07 09:53:46;;;;;;;2.10;1.60;;;;;;;25.04;42.10;96917.09;127413;1092;62649;-49
2021/08/07 09:56:13;;;;;;;2.03;1.47;;;;;;;25.08;42.32;96929.03;127090;1095;62671;-49
2021/08/07 09:58:40;;;;;;;2.70;2.50;;;;;;;25.10;42.36;96930.47;127108;1095;62611;-48
2021/08/07 10:01:07;;;;;;;2.67;1.60;;;;;;;25.14;42.45;96928.16;126954;1095;62626;-50
2021/08/07 10:03:35;;;;;;;3.07;1.77;;;;;;;25.19;42.67;96936.39;126885;1095;62671;-49
2021/08/07 10:06:21;;;;;;;2.10;1.60;;;;;;;25.21;42.41;96926.28;126877;1095;62625;-47
2021/08/07 10:08:50;;;;;;;2.20;1.70;;;;;;;25.24;42.56;96925.05;126905;1093;62578;-47
2021/08/07 10:11:19;;;;;;;3.47;1.73;;;;;;;25.24;42.46;96927.72;126875;1093;63054;-47
2021/08/07 10:13:47;;;;;;;2.23;1.67;;;;;;;25.25;42.54;96930.16;126914;1093;62607;-53
2021/08/07 10:16:14;;;;;;;2.67;1.50;;;;;;;25.27;42.51;96927.27;126899;1095;62607;-48
2021/08/07 10:18:42;;;;;;;4.07;2.00;;;;;;;25.29;42.37;96928.70;126911;1093;62626;-48
2021/08/07 10:21:09;;;;;;;3.30;1.60;;;;;;;25.29;42.41;96930.56;127010;1095;62654;-48
2021/08/07 10:23:36;;;;;;;2.37;1.70;;;;;;;25.28;42.46;96932.42;126863;1095;62619;-51
2021/08/07 10:26:03;;;;;;;2.17;1.57;;;;;;;25.29;42.59;96928.70;127081;1095;62614;-52
2021/08/07 10:28:30;;;;;;;2.90;2.00;;;;;;;25.30;42.49;96935.69;127003;1095;62623;-49
2021/08/07 10:31:01;;;;;;;3.57;1.50;;;;;;;25.30;42.39;96933.01;126991;1095;62723;-48
2021/08/07 10:33:28;;;;;;;3.10;1.53;;;;;;;25.32;42.34;96922.90;127040;1094;62710;-50
2021/08/07 10:35:55;;;;;;;2.60;1.60;;;;;;;25.35;42.39;96927.83;127071;1095;62654;-50
2021/08/07 10:38:22;;;;;;;2.53;1.60;;;;;;;25.37;42.17;96925.74;126941;1093;62662;-48
2021/08/07 10:40:49;;;;;;;2.97;1.73;;;;;;;25.43;42.16;96921.41;126893;1094;62606;-46
2021/08/07 10:43:17;;;;;;;1.90;1.45;;;;;;;25.47;42.09;96917.26;126992;1095;63038;-50
2021/08/07 10:45:44;;;;;;;3.13;1.80;;;;;;;25.53;42.18;96913.70;126973;1095;62614;-48
2021/08/07 10:48:34;;;;;;;3.23;1.73;;;;;;;25.59;42.02;96920.84;126916;1095;62595;-50
2021/08/07 10:51:18;;;;;;;2.17;1.63;;;;;;;25.60;41.82;96933.19;127020;1095;62595;-50
2021/08/07 10:53:46;;;;;;;2.85;1.60;;;;;;;25.63;41.92;96922.05;127006;1095;62607;-47
2021/08/07 10:56:29;;;;;;;2.63;1.43;;;;;;;25.66;41.66;96926.16;126904;1094;62624;-48
2021/08/07 10:59:11;;;;;;;1.83;1.53;;;;;;;25.70;41.80;96921.16;126908;1093;62620;-49
2021/08/07 11:01:43;;;;;;;1.80;1.20;;;;;;;25.74;41.67;96931.22;127116;1095;62619;-48
2021/08/07 11:04:11;;;;;;;2.17;1.47;;;;;;;25.77;41.54;96928.14;126991;1095;62607;-51
2021/08/07 11:06:38;;;;;;;3.33;1.80;;;;;;;25.79;41.57;96928.77;127009;1095;62592;-48
2021/08/07 11:09:54;;;;;;;1.50;1.40;;;;;;;25.83;41.74;96929.12;126919;1093;62626;-49
2021/08/07 11:12:21;;;;;;;2.30;1.50;;;;;;;26.01;39.06;96922.98;126792;1095;62635;-66
2021/08/07 11:14:57;;;;;;;1.60;1.20;;;;;;;26.24;39.84;96925.02;126878;1095;62603;-69
2021/08/07 11:17:25;;;;;;;2.10;1.00;;;;;;;26.51;39.75;96930.94;126912;1095;62522;-65
2021/08/07 11:20:06;;;;;;;1.23;1.10;;;;;;;26.75;39.57;96930.01;126872;1095;62623;-64
2021/08/07 11:22:36;;;;;;;2.47;1.30;;;;;;;27.02;39.14;96935.84;126843;1095;62602;-75
2021/08/07 11:25:21;;;;;;;2.73;1.10;;;;;;;27.25;39.40;96932.45;126919;1095;62774;-73
2021/08/07 11:27:58;;;;;;;1.53;1.03;;;;;;;27.53;38.76;96931.83;126820;1093;62631;-70
2021/08/07 11:30:36;;;;;;;1.60;1.07;;;;;;;27.85;38.07;96935.05;126901;1094;62575;-61